createdAt,value
2023-05-13T00:00:37.761Z,4.82
2023-05-13T00:03:04.181Z,4.50
2023-05-13T00:05:30.802Z,4.50
2023-05-13T00:07:57.168Z,4.47
2023-05-13T00:10:24.740Z,4.95
2023-05-13T00:12:51.281Z,4.60
2023-05-13T00:15:17.891Z,4.97
2023-05-13T00:17:44.471Z,4.90
2023-05-13T00:20:11.126Z,4.78
2023-05-13T00:22:37.696Z,4.80
2023-05-13T00:25:04.593Z,4.38
2023-05-13T00:27:32.749Z,4.57
2023-05-13T00:29:59.823Z,4.53
2023-05-13T00:32:26.760Z,4.68
2023-05-13T00:34:53.511Z,4.90
2023-05-13T00:37:19.864Z,4.93
2023-05-13T00:39:46.194Z,4.43
2023-05-13T00:42:13.655Z,4.78
2023-05-13T00:44:40.856Z,4.82
2023-05-13T00:47:07.591Z,5.13
2023-05-13T00:49:34.237Z,4.90
2023-05-13T00:52:01.793Z,5.00
2023-05-13T00:54:29.145Z,5.20
2023-05-13T00:56:56.856Z,4.88
2023-05-13T00:59:25.773Z,5.00
2023-05-13T01:01:58.067Z,4.90
2023-05-13T01:04:37.545Z,4.93
2023-05-13T01:07:50.930Z,4.68
2023-05-13T01:10:28.194Z,5.05
2023-05-13T01:13:00.194Z,5.25
2023-05-13T01:15:29.159Z,5.00
2023-05-13T01:18:15.468Z,5.40
2023-05-13T01:20:43.565Z,6.03
2023-05-13T01:23:13.146Z,5.10
2023-05-13T01:25:40.535Z,5.50
2023-05-13T01:28:08.880Z,5.40
2023-05-13T01:30:36.108Z,5.47
2023-05-13T01:33:03.325Z,5.47
2023-05-13T01:35:31.897Z,5.32
2023-05-13T01:37:59.266Z,5.45
2023-05-13T01:42:57.359Z,5.30
2023-05-13T01:45:23.675Z,5.60
2023-05-13T01:47:50.059Z,5.35
2023-05-13T01:50:16.456Z,5.57
2023-05-13T01:52:42.868Z,5.28
2023-05-13T01:55:09.405Z,5.65
2023-05-13T01:57:35.750Z,5.68
2023-05-13T02:00:02.452Z,5.03
2023-05-13T02:02:28.891Z,6.30
2023-05-13T02:04:55.411Z,5.15
2023-05-13T02:07:21.737Z,5.10
2023-05-13T02:09:48.114Z,5.40
2023-05-13T02:12:14.461Z,5.10
2023-05-13T02:14:40.851Z,5.45
2023-05-13T02:17:07.277Z,5.47
2023-05-13T02:19:33.604Z,5.22
2023-05-13T02:21:59.931Z,5.53
2023-05-13T02:24:26.321Z,5.60
2023-05-13T02:26:53.079Z,5.13
2023-05-13T02:29:19.464Z,5.95
2023-05-13T02:31:45.922Z,4.90
2023-05-13T02:34:12.288Z,5.38
2023-05-13T02:36:38.631Z,5.72
2023-05-13T02:39:05.197Z,6.03
2023-05-13T02:41:32.282Z,5.70
2023-05-13T02:43:58.616Z,5.60
2023-05-13T02:46:24.975Z,5.68
2023-05-13T02:48:51.411Z,5.43
2023-05-13T02:51:17.736Z,5.80
2023-05-13T02:53:44.080Z,5.35
2023-05-13T02:56:10.425Z,6.03
2023-05-13T02:58:36.760Z,5.60
2023-05-13T03:01:03.173Z,5.68
2023-05-13T03:03:29.724Z,5.25
2023-05-13T03:05:56.269Z,5.97
2023-05-13T03:08:22.656Z,5.97
2023-05-13T03:10:49.022Z,5.68
2023-05-13T03:13:15.452Z,6.05
2023-05-13T03:15:44.121Z,5.43
2023-05-13T03:18:11.003Z,5.97
2023-05-13T03:20:37.470Z,6.10
2023-05-13T03:23:04.018Z,5.65
2023-05-13T03:25:30.369Z,5.97
2023-05-13T03:27:56.677Z,5.53
2023-05-13T03:30:23.349Z,6.10
2023-05-13T03:32:49.989Z,6.32
2023-05-13T03:35:16.343Z,6.22
2023-05-13T03:37:42.686Z,6.82
2023-05-13T03:40:09.464Z,6.18
2023-05-13T03:42:35.824Z,5.65
2023-05-13T03:45:02.165Z,6.30
2023-05-13T03:47:28.674Z,6.13
2023-05-13T03:49:55.036Z,6.30
2023-05-13T03:52:21.455Z,5.97
2023-05-13T03:54:47.859Z,6.20
2023-05-13T03:57:14.208Z,5.75
2023-05-13T03:59:40.721Z,5.93
2023-05-13T04:02:07.205Z,5.85
2023-05-13T04:04:33.818Z,5.57
2023-05-13T04:07:00.200Z,6.45
2023-05-13T04:09:26.797Z,5.88
2023-05-13T04:11:53.281Z,6.15
2023-05-13T04:14:19.623Z,6.10
2023-05-13T04:16:46.079Z,6.32
2023-05-13T04:19:12.510Z,6.05
2023-05-13T04:21:38.926Z,6.32
2023-05-13T04:24:06.643Z,5.85
2023-05-13T04:26:33.032Z,6.30
2023-05-13T04:28:59.361Z,6.22
2023-05-13T04:31:25.788Z,6.03
2023-05-13T04:33:52.151Z,5.65
2023-05-13T04:36:18.995Z,6.43
2023-05-13T04:38:45.374Z,5.88
2023-05-13T04:41:11.691Z,6.00
2023-05-13T04:43:38.022Z,6.55
2023-05-13T04:46:04.608Z,6.20
2023-05-13T04:48:31.155Z,6.60
2023-05-13T04:50:58.405Z,6.35
2023-05-13T04:53:25.339Z,6.35
2023-05-13T04:55:57.023Z,6.03
2023-05-13T04:58:23.458Z,6.57
2023-05-13T05:00:49.798Z,6.65
2023-05-13T05:03:16.262Z,6.25
2023-05-13T05:05:42.806Z,5.88
2023-05-13T05:08:09.144Z,6.25
2023-05-13T05:10:35.490Z,5.90
2023-05-13T05:13:01.859Z,5.18
2023-05-13T05:15:29.674Z,6.00
2023-05-13T05:17:57.193Z,5.25
2023-05-13T05:20:24.430Z,5.30
2023-05-13T05:22:50.856Z,5.72
2023-05-13T05:25:17.201Z,5.78
2023-05-13T05:27:43.562Z,5.80
2023-05-13T05:30:10.948Z,5.38
2023-05-13T05:32:37.594Z,5.60
2023-05-13T05:35:04.448Z,5.85
2023-05-13T05:37:30.771Z,5.43
2023-05-13T05:39:57.116Z,5.65
2023-05-13T05:42:23.587Z,5.60
2023-05-13T05:44:49.922Z,5.70
2023-05-13T05:47:16.245Z,5.85
2023-05-13T05:49:42.651Z,5.45
2023-05-13T05:52:11.090Z,5.55
2023-05-13T05:54:37.441Z,5.85
2023-05-13T05:57:03.949Z,5.38
2023-05-13T05:59:30.308Z,5.45
2023-05-13T06:01:56.641Z,5.22
2023-05-13T06:04:23.146Z,5.43
2023-05-13T06:06:49.596Z,5.25
2023-05-13T06:09:16.083Z,6.10
2023-05-13T06:11:42.528Z,5.45
2023-05-13T06:14:08.873Z,5.55
2023-05-13T06:16:35.490Z,5.13
2023-05-13T06:19:01.899Z,4.97
2023-05-13T06:21:28.260Z,6.03
2023-05-13T06:23:54.643Z,5.18
2023-05-13T06:26:21.044Z,5.70
2023-05-13T06:28:47.383Z,5.60
2023-05-13T06:31:13.963Z,5.32
2023-05-13T06:33:40.545Z,5.85
2023-05-13T06:36:07.345Z,5.13
2023-05-13T06:38:34.524Z,4.97
2023-05-13T06:41:00.876Z,5.60
2023-05-13T06:43:27.280Z,5.13
2023-05-13T06:45:53.672Z,5.35
2023-05-13T06:48:20.002Z,5.38
2023-05-13T06:50:46.393Z,5.65
2023-05-13T06:53:13.053Z,5.28
2023-05-13T06:55:41.721Z,5.55
2023-05-13T06:58:08.921Z,4.97
2023-05-13T07:00:39.282Z,5.43
2023-05-13T07:03:09.009Z,5.03
2023-05-13T07:05:35.855Z,5.15
2023-05-13T07:08:06.824Z,4.93
2023-05-13T07:10:34.074Z,5.45
2023-05-13T07:13:01.560Z,5.40
2023-05-13T07:15:28.379Z,5.65
2023-05-13T07:17:54.885Z,5.68
2023-05-13T07:20:22.798Z,5.50
2023-05-13T07:22:49.885Z,5.63
2023-05-13T07:25:17.048Z,5.82
2023-05-13T07:27:43.632Z,5.18
2023-05-13T07:30:11.572Z,5.15
2023-05-13T07:32:38.893Z,5.10
2023-05-13T07:35:06.366Z,5.03
2023-05-13T07:37:32.735Z,5.10
2023-05-13T07:39:59.056Z,4.45
2023-05-13T07:42:27.129Z,4.30
2023-05-13T07:44:53.801Z,4.25
2023-05-13T07:47:20.414Z,4.57
2023-05-13T07:49:47.074Z,4.18
2023-05-13T07:52:13.500Z,3.55
2023-05-13T07:54:39.832Z,4.32
2023-05-13T07:57:06.377Z,4.50
2023-05-13T07:59:33.079Z,3.83
2023-05-13T08:01:59.396Z,4.05
2023-05-13T08:04:26.028Z,3.97
2023-05-13T08:06:52.930Z,4.00
2023-05-13T08:09:19.284Z,3.70
2023-05-13T08:11:45.630Z,3.78
2023-05-13T08:14:11.949Z,3.63
2023-05-13T08:16:38.354Z,4.20
2023-05-13T08:19:04.979Z,3.72
2023-05-13T08:21:32.556Z,4.00
2023-05-13T08:23:58.946Z,4.10
2023-05-13T08:26:25.424Z,3.97
2023-05-13T08:28:54.458Z,3.75
2023-05-13T08:31:21.519Z,3.83
2023-05-13T08:33:48.581Z,3.60
2023-05-13T08:36:15.417Z,3.72
2023-05-13T08:38:43.404Z,3.70
2023-05-13T08:41:14.051Z,3.50
2023-05-13T08:43:42.815Z,3.10
2023-05-13T08:46:11.658Z,3.53
2023-05-13T08:48:42.220Z,4.10
2023-05-13T08:51:09.421Z,4.00
2023-05-13T08:53:38.407Z,3.70
2023-05-13T08:56:06.158Z,3.75
2023-05-13T08:58:32.566Z,3.30
2023-05-13T09:00:58.988Z,3.70
2023-05-13T09:03:27.917Z,3.33
2023-05-13T09:05:54.428Z,3.97
2023-05-13T09:08:21.077Z,5.13
2023-05-13T09:10:47.932Z,4.53
2023-05-13T09:13:14.350Z,4.43
2023-05-13T09:15:44.620Z,6.30
2023-05-13T09:18:11.387Z,3.53
2023-05-13T09:20:38.129Z,3.63
2023-05-13T09:23:07.425Z,3.53
2023-05-13T09:25:34.496Z,3.53
2023-05-13T09:28:03.005Z,3.45
2023-05-13T09:30:35.465Z,3.25
2023-05-13T09:33:09.369Z,3.00
2023-05-13T09:35:41.996Z,3.35
2023-05-13T09:38:18.952Z,3.35
2023-05-13T09:40:53.413Z,3.30
2023-05-13T09:43:24.740Z,3.20
2023-05-13T09:45:55.693Z,3.10
2023-05-13T09:48:26.823Z,3.22
2023-05-13T09:50:53.669Z,3.33
2023-05-13T09:53:23.007Z,3.05
2023-05-13T09:55:51.063Z,3.13
2023-05-13T09:58:20.046Z,2.90
2023-05-13T10:00:47.478Z,3.72
2023-05-13T10:03:15.056Z,3.33
2023-05-13T10:05:42.089Z,3.30
2023-05-13T10:08:13.957Z,3.40
2023-05-13T10:10:42.242Z,3.55
2023-05-13T10:13:13.186Z,3.33
2023-05-13T10:15:50.626Z,2.95
2023-05-13T10:18:18.916Z,3.10
2023-05-13T10:20:46.214Z,3.47
2023-05-13T10:23:12.921Z,3.13
2023-05-13T10:25:40.758Z,3.58
2023-05-13T10:28:07.904Z,3.20
2023-05-13T10:30:35.777Z,3.28
2023-05-13T10:33:03.936Z,3.45
2023-05-13T10:35:37.745Z,3.55
2023-05-13T10:38:29.408Z,3.05
2023-05-13T10:41:10.185Z,3.60
2023-05-13T10:43:37.292Z,3.53
2023-05-13T10:46:11.395Z,3.90
2023-05-13T10:48:43.282Z,3.47
2023-05-13T10:51:14.064Z,4.25
2023-05-13T10:53:49.219Z,3.08
2023-05-13T10:56:16.576Z,3.10
2023-05-13T10:58:42.983Z,3.45
2023-05-13T11:01:12.344Z,3.60
2023-05-13T11:03:40.144Z,3.50
2023-05-13T11:06:19.364Z,3.35
2023-05-13T11:08:48.514Z,3.45
2023-05-13T11:11:22.369Z,3.35
2023-05-13T11:14:12.601Z,3.78
2023-05-13T11:16:39.154Z,3.67
2023-05-13T11:19:19.453Z,3.47
2023-05-13T11:21:49.635Z,3.38
2023-05-13T11:24:18.806Z,3.42
2023-05-13T11:26:53.104Z,3.08
2023-05-13T11:29:36.177Z,3.53
2023-05-13T11:32:06.892Z,3.45
2023-05-13T11:34:34.373Z,3.40
2023-05-13T11:37:03.573Z,3.15
2023-05-13T11:39:30.877Z,2.97
2023-05-13T11:41:57.484Z,3.00
2023-05-13T11:44:25.709Z,2.35
2023-05-13T11:46:54.014Z,2.65
2023-05-13T11:49:46.556Z,2.80
2023-05-13T11:52:20.364Z,3.00
2023-05-13T11:54:54.394Z,3.83
2023-05-13T11:57:22.198Z,3.78
2023-05-13T12:00:05.276Z,3.05
2023-05-13T12:02:35.310Z,2.75
2023-05-13T12:05:11.693Z,2.60
2023-05-13T12:07:39.522Z,2.85
2023-05-13T12:10:07.101Z,2.83
2023-05-13T12:12:35.715Z,2.60
2023-05-13T12:15:03.768Z,2.88
2023-05-13T12:17:31.758Z,2.58
2023-05-13T12:20:21.469Z,2.70
2023-05-13T12:22:48.158Z,2.70
2023-05-13T12:25:40.201Z,2.47
2023-05-13T12:28:20.778Z,2.60
2023-05-13T12:31:01.248Z,2.58
2023-05-13T12:33:49.340Z,2.92
2023-05-13T12:36:33.629Z,2.50
2023-05-13T12:39:02.525Z,2.40
2023-05-13T12:41:39.930Z,2.65
2023-05-13T12:44:13.434Z,2.10
2023-05-13T12:46:53.293Z,2.47
2023-05-13T12:49:19.974Z,2.55
2023-05-13T12:51:46.318Z,2.65
2023-05-13T12:54:12.816Z,2.70
2023-05-13T12:56:40.447Z,2.60
2023-05-13T12:59:07.891Z,2.50
2023-05-13T13:01:35.299Z,2.75
2023-05-13T13:04:02.000Z,3.00
2023-05-13T13:06:28.529Z,3.10
2023-05-13T13:08:54.889Z,2.80
2023-05-13T13:11:21.547Z,3.03
2023-05-13T13:13:49.622Z,2.90
2023-05-13T13:16:16.064Z,3.78
2023-05-13T13:18:42.902Z,2.83
2023-05-13T13:21:10.215Z,14.48
2023-05-13T13:23:36.901Z,4.90
2023-05-13T13:26:03.321Z,3.65
2023-05-13T13:28:31.498Z,3.30
2023-05-13T13:30:59.353Z,2.67
2023-05-13T13:33:25.712Z,2.85
2023-05-13T13:35:52.195Z,3.20
2023-05-13T13:38:18.622Z,2.85
2023-05-13T13:40:45.005Z,2.53
2023-05-13T13:43:11.388Z,3.67
2023-05-13T13:45:41.373Z,2.63
2023-05-13T13:48:08.089Z,2.78
2023-05-13T13:50:34.557Z,2.50
2023-05-13T13:53:00.972Z,2.92
2023-05-13T13:55:27.303Z,2.40
2023-05-13T13:57:53.742Z,3.33
2023-05-13T14:00:20.293Z,2.85
2023-05-13T14:02:46.999Z,3.40
2023-05-13T14:05:13.642Z,2.47
2023-05-13T14:07:40.233Z,2.70
2023-05-13T14:10:07.423Z,2.65
2023-05-13T14:12:35.654Z,2.50
2023-05-13T14:15:02.099Z,2.60
2023-05-13T14:17:28.752Z,3.00
2023-05-13T14:19:55.481Z,2.30
2023-05-13T14:22:23.695Z,2.30
2023-05-13T14:24:51.681Z,2.55
2023-05-13T14:27:18.412Z,2.40
2023-05-13T14:29:46.812Z,2.92
2023-05-13T14:32:13.787Z,2.58
2023-05-13T14:34:40.200Z,2.40
2023-05-13T14:37:07.013Z,2.45
2023-05-13T14:39:33.376Z,2.88
2023-05-13T14:41:59.936Z,2.50
2023-05-13T14:44:26.435Z,2.47
2023-05-13T14:46:53.062Z,2.35
2023-05-13T14:49:19.427Z,2.28
2023-05-13T14:51:45.800Z,2.58
2023-05-13T14:54:12.119Z,2.50
2023-05-13T14:56:38.537Z,2.80
2023-05-13T14:59:05.046Z,2.97
2023-05-13T15:01:31.672Z,2.80
2023-05-13T15:03:59.566Z,2.67
2023-05-13T15:06:26.812Z,2.90
2023-05-13T15:08:53.617Z,2.50
2023-05-13T15:11:20.046Z,2.72
2023-05-13T15:13:46.484Z,2.80
2023-05-13T15:16:12.863Z,2.83
2023-05-13T15:18:39.279Z,3.78
2023-05-13T15:21:05.683Z,3.45
2023-05-13T15:23:32.179Z,3.15
2023-05-13T15:25:58.568Z,2.92
2023-05-13T15:28:24.947Z,2.83
2023-05-13T15:30:51.346Z,2.55
2023-05-13T15:33:17.813Z,2.72
2023-05-13T15:35:44.194Z,2.55
2023-05-13T15:38:10.765Z,2.40
2023-05-13T15:40:38.449Z,2.30
2023-05-13T15:43:05.123Z,2.53
2023-05-13T15:45:31.516Z,2.10
2023-05-13T15:47:57.928Z,2.35
2023-05-13T15:50:25.907Z,2.60
2023-05-13T15:52:54.305Z,2.58
2023-05-13T15:55:20.803Z,2.30
2023-05-13T15:57:48.889Z,2.85
2023-05-13T16:00:17.575Z,2.55
2023-05-13T16:02:44.205Z,3.20
2023-05-13T16:05:19.068Z,2.58
2023-05-13T16:07:45.689Z,2.63
2023-05-13T16:10:12.093Z,3.10
2023-05-13T16:12:38.895Z,3.20
2023-05-13T16:15:06.396Z,3.08
2023-05-13T16:17:33.174Z,3.30
2023-05-13T16:19:59.904Z,3.10
2023-05-13T16:22:36.008Z,2.70
2023-05-13T16:25:04.837Z,2.80
2023-05-13T16:27:31.995Z,2.75
2023-05-13T16:29:59.410Z,2.90
2023-05-13T16:32:27.955Z,2.55
2023-05-13T16:34:54.943Z,4.88
2023-05-13T16:37:21.376Z,3.30
2023-05-13T16:39:47.817Z,3.40
2023-05-13T16:42:14.198Z,3.40
2023-05-13T16:44:40.546Z,3.33
2023-05-13T16:47:10.753Z,2.83
2023-05-13T16:49:38.676Z,2.55
2023-05-13T16:52:05.453Z,2.97
2023-05-13T16:54:32.231Z,2.63
2023-05-13T16:56:59.560Z,2.95
2023-05-13T16:59:27.705Z,2.95
2023-05-13T17:01:54.282Z,2.80
2023-05-13T17:04:21.289Z,2.92
2023-05-13T17:06:47.725Z,2.63
2023-05-13T17:09:14.241Z,2.78
2023-05-13T17:11:40.643Z,3.22
2023-05-13T17:14:07.167Z,3.42
2023-05-13T17:16:33.627Z,3.30
2023-05-13T17:19:00.062Z,3.28
2023-05-13T17:21:26.497Z,2.92
2023-05-13T17:23:53.294Z,3.10
2023-05-13T17:26:21.754Z,3.78
2023-05-13T17:28:48.825Z,2.95
2023-05-13T17:31:15.428Z,2.75
2023-05-13T17:33:44.762Z,2.80
2023-05-13T17:36:11.353Z,2.58
2023-05-13T17:38:38.053Z,2.70
2023-05-13T17:41:04.759Z,3.17
2023-05-13T17:43:31.227Z,3.38
2023-05-13T17:45:57.737Z,2.72
2023-05-13T17:48:24.306Z,2.50
2023-05-13T17:50:51.606Z,2.78
2023-05-13T17:53:18.352Z,2.90
2023-05-13T17:55:44.806Z,3.65
2023-05-13T17:58:11.119Z,2.75
2023-05-13T18:00:37.524Z,3.08
2023-05-13T18:03:04.027Z,3.33
2023-05-13T18:05:30.720Z,2.83
2023-05-13T18:07:57.198Z,2.88
2023-05-13T18:10:24.380Z,2.90
2023-05-13T18:12:51.758Z,2.50
2023-05-13T18:15:18.487Z,2.60
2023-05-13T18:17:44.923Z,3.35
2023-05-13T18:20:12.364Z,3.22
2023-05-13T18:22:39.078Z,3.58
2023-05-13T18:25:06.926Z,3.70
2023-05-13T18:27:33.343Z,3.88
2023-05-13T18:29:59.675Z,4.53
2023-05-13T18:32:26.603Z,4.13
2023-05-13T18:34:53.018Z,4.60
2023-05-13T18:37:19.436Z,3.95
2023-05-13T18:39:45.868Z,3.63
2023-05-13T18:42:12.481Z,3.95
2023-05-13T18:44:38.919Z,3.67
2023-05-13T18:47:06.130Z,3.58
2023-05-13T18:49:32.929Z,3.70
2023-05-13T18:52:01.220Z,3.60
2023-05-13T18:54:29.049Z,4.88
2023-05-13T18:56:56.108Z,4.95
2023-05-13T18:59:22.516Z,5.53
2023-05-13T19:01:48.861Z,6.10
2023-05-13T19:04:15.461Z,4.93
2023-05-13T19:06:42.043Z,4.70
2023-05-13T19:09:08.394Z,4.63
2023-05-13T19:11:34.813Z,3.90
2023-05-13T19:14:01.215Z,3.97
2023-05-13T19:16:27.650Z,4.10
2023-05-13T19:18:54.155Z,3.78
2023-05-13T19:21:23.145Z,4.75
2023-05-13T19:23:49.903Z,6.60
2023-05-13T19:26:16.375Z,5.68
2023-05-13T19:28:43.904Z,5.13
2023-05-13T19:31:10.703Z,4.10
2023-05-13T19:33:37.228Z,3.95
2023-05-13T19:36:04.894Z,4.00
2023-05-13T19:38:31.503Z,3.75
2023-05-13T19:40:57.847Z,3.92
2023-05-13T19:43:24.793Z,3.55
2023-05-13T19:45:51.642Z,3.50
2023-05-13T19:48:18.544Z,4.00
2023-05-13T19:50:44.913Z,3.72
2023-05-13T19:53:11.398Z,3.80
2023-05-13T19:55:37.804Z,3.80
2023-05-13T19:58:04.336Z,4.10
2023-05-13T20:00:30.720Z,4.07
2023-05-13T20:02:57.261Z,4.20
2023-05-13T20:05:23.689Z,3.78
2023-05-13T20:07:50.001Z,4.50
2023-05-13T20:10:16.360Z,4.10
2023-05-13T20:12:42.806Z,4.57
2023-05-13T20:15:10.208Z,4.30
2023-05-13T20:17:37.139Z,4.05
2023-05-13T20:20:05.025Z,4.10
2023-05-13T20:22:31.359Z,3.97
2023-05-13T20:24:57.763Z,4.32
2023-05-13T20:27:24.175Z,3.90
2023-05-13T20:29:54.023Z,4.15
2023-05-13T20:32:24.355Z,3.75
2023-05-13T20:34:52.215Z,3.60
2023-05-13T20:37:19.693Z,3.75
2023-05-13T20:39:46.966Z,4.18
2023-05-13T20:42:13.423Z,3.75
2023-05-13T20:44:39.755Z,3.92
2023-05-13T20:47:06.831Z,4.10
2023-05-13T20:49:34.413Z,4.15
2023-05-13T20:52:06.328Z,3.92
2023-05-13T20:54:34.121Z,3.70
2023-05-13T20:57:02.865Z,3.80
2023-05-13T20:59:30.058Z,3.72
2023-05-13T21:01:56.546Z,3.60
2023-05-13T21:04:23.306Z,3.70
2023-05-13T21:06:49.640Z,3.40
2023-05-13T21:09:16.354Z,3.58
2023-05-13T21:11:43.076Z,3.83
2023-05-13T21:14:09.497Z,3.70
2023-05-13T21:16:35.988Z,4.07
2023-05-13T21:19:02.383Z,3.42
2023-05-13T21:21:28.795Z,3.60
2023-05-13T21:23:55.230Z,3.90
2023-05-13T21:26:21.934Z,4.07
2023-05-13T21:28:48.260Z,3.90
2023-05-13T21:31:14.723Z,3.63
2023-05-13T21:33:41.124Z,3.65
2023-05-13T21:36:07.701Z,3.70
2023-05-13T21:38:34.035Z,3.58
2023-05-13T21:41:00.417Z,3.78
2023-05-13T21:43:26.792Z,3.60
2023-05-13T21:45:53.185Z,3.85
2023-05-13T21:48:19.643Z,4.03
2023-05-13T21:50:46.045Z,3.55
2023-05-13T21:53:12.398Z,3.28
2023-05-13T21:55:38.831Z,3.20
2023-05-13T21:58:05.165Z,3.55
2023-05-13T22:00:31.895Z,3.22
2023-05-13T22:03:00.268Z,3.10
2023-05-13T22:05:28.904Z,3.55
2023-05-13T22:07:55.263Z,3.65
2023-05-13T22:10:21.858Z,4.30
2023-05-13T22:12:52.665Z,3.28
2023-05-13T22:15:20.073Z,3.65
2023-05-13T22:17:47.821Z,3.53
2023-05-13T22:20:16.299Z,3.60
2023-05-13T22:22:42.698Z,3.67
2023-05-13T22:25:09.280Z,3.70
2023-05-13T22:27:35.784Z,4.40
2023-05-13T22:30:02.202Z,3.97
2023-05-13T22:32:28.610Z,4.15
2023-05-13T22:34:54.971Z,3.60
2023-05-13T22:37:21.507Z,4.35
2023-05-13T22:39:47.986Z,4.05
2023-05-13T22:42:14.417Z,4.30
2023-05-13T22:44:40.770Z,4.22
2023-05-13T22:47:08.369Z,3.80
2023-05-13T22:49:35.047Z,4.07
2023-05-13T22:52:01.392Z,4.32
2023-05-13T22:54:28.157Z,4.35
2023-05-13T22:56:54.523Z,4.78
2023-05-13T22:59:20.917Z,4.47
2023-05-13T23:01:47.377Z,4.15
2023-05-13T23:04:13.772Z,3.88
2023-05-13T23:06:40.163Z,3.88
2023-05-13T23:09:07.435Z,4.25
2023-05-13T23:11:36.005Z,3.97
2023-05-13T23:14:02.315Z,3.88
2023-05-13T23:16:28.649Z,4.07
2023-05-13T23:18:55.846Z,3.47
2023-05-13T23:21:22.252Z,3.83
2023-05-13T23:23:50.117Z,3.78
2023-05-13T23:26:16.527Z,3.67
2023-05-13T23:28:42.877Z,4.05
2023-05-13T23:31:09.335Z,3.90
2023-05-13T23:33:35.873Z,3.67
2023-05-13T23:36:02.204Z,3.42
2023-05-13T23:38:28.557Z,3.45
2023-05-13T23:40:54.933Z,3.97
2023-05-13T23:43:21.514Z,3.67
2023-05-13T23:45:47.921Z,4.10
2023-05-13T23:48:14.317Z,4.00
2023-05-13T23:50:41.534Z,3.85
2023-05-13T23:53:07.902Z,3.63
2023-05-13T23:55:34.289Z,3.80
2023-05-13T23:58:00.655Z,3.97
